sensor_id;sensor_type;location;lat;lon;timestamp;P1;durP1;ratioP1;P2;durP2;ratioP2
46054;SDS011;31788;6.954;-71.872;2023-05-07T00:00:19;14.63;;;5.78;;
46054;SDS011;31788;6.954;-71.872;2023-05-07T00:02:46;15.20;;;5.87;;
46054;SDS011;31788;6.954;-71.872;2023-05-07T00:05:12;15.02;;;5.40;;
46054;SDS011;31788;6.954;-71.872;2023-05-07T00:07:41;15.52;;;5.50;;
46054;SDS011;31788;6.954;-71.872;2023-05-07T00:10:07;14.20;;;5.85;;
46054;SDS011;31788;6.954;-71.872;2023-05-07T00:12:35;12.75;;;6.00;;
46054;SDS011;31788;6.954;-71.872;2023-05-07T00:15:02;16.17;;;6.70;;
46054;SDS011;31788;6.954;-71.872;2023-05-07T00:17:30;14.27;;;6.82;;
46054;SDS011;31788;6.954;-71.872;2023-05-07T00:19:56;16.00;;;6.68;;
46054;SDS011;31788;6.954;-71.872;2023-05-07T00:22:23;13.43;;;6.43;;
46054;SDS011;31788;6.954;-71.872;2023-05-07T00:24:50;19.20;;;7.10;;
46054;SDS011;31788;6.954;-71.872;2023-05-07T00:27:16;15.95;;;6.38;;
46054;SDS011;31788;6.954;-71.872;2023-05-07T00:29:44;15.05;;;6.10;;
46054;SDS011;31788;6.954;-71.872;2023-05-07T00:32:11;17.95;;;5.88;;
46054;SDS011;31788;6.954;-71.872;2023-05-07T00:34:37;12.63;;;5.97;;
46054;SDS011;31788;6.954;-71.872;2023-05-07T00:37:04;10.88;;;5.30;;
46054;SDS011;31788;6.954;-71.872;2023-05-07T00:39:33;14.65;;;5.68;;
46054;SDS011;31788;6.954;-71.872;2023-05-07T00:42:00;20.85;;;12.05;;
46054;SDS011;31788;6.954;-71.872;2023-05-07T00:44:26;17.67;;;9.82;;
46054;SDS011;31788;6.954;-71.872;2023-05-07T00:46:53;14.85;;;6.85;;
46054;SDS011;31788;6.954;-71.872;2023-05-07T00:49:21;15.47;;;6.30;;
46054;SDS011;31788;6.954;-71.872;2023-05-07T00:51:48;10.63;;;6.10;;
46054;SDS011;31788;6.954;-71.872;2023-05-07T00:54:16;12.88;;;5.50;;
46054;SDS011;31788;6.954;-71.872;2023-05-07T00:56:43;13.63;;;5.40;;
46054;SDS011;31788;6.954;-71.872;2023-05-07T00:59:10;14.25;;;5.90;;
46054;SDS011;31788;6.954;-71.872;2023-05-07T01:01:37;22.08;;;6.78;;
46054;SDS011;31788;6.954;-71.872;2023-05-07T01:04:04;16.23;;;6.55;;
46054;SDS011;31788;6.954;-71.872;2023-05-07T01:06:31;14.75;;;6.95;;
46054;SDS011;31788;6.954;-71.872;2023-05-07T01:08:59;14.70;;;6.80;;
46054;SDS011;31788;6.954;-71.872;2023-05-07T01:11:26;17.17;;;6.80;;
46054;SDS011;31788;6.954;-71.872;2023-05-07T01:13:53;22.05;;;7.80;;
46054;SDS011;31788;6.954;-71.872;2023-05-07T01:16:20;18.65;;;7.35;;
46054;SDS011;31788;6.954;-71.872;2023-05-07T01:18:47;20.40;;;8.38;;
46054;SDS011;31788;6.954;-71.872;2023-05-07T01:21:14;23.67;;;8.65;;
46054;SDS011;31788;6.954;-71.872;2023-05-07T01:23:43;22.60;;;9.05;;
46054;SDS011;31788;6.954;-71.872;2023-05-07T01:26:11;20.63;;;8.27;;
46054;SDS011;31788;6.954;-71.872;2023-05-07T01:28:37;20.38;;;9.07;;
46054;SDS011;31788;6.954;-71.872;2023-05-07T01:31:04;15.07;;;6.90;;
46054;SDS011;31788;6.954;-71.872;2023-05-07T01:33:32;16.42;;;6.25;;
46054;SDS011;31788;6.954;-71.872;2023-05-07T01:36:01;12.60;;;6.50;;
46054;SDS011;31788;6.954;-71.872;2023-05-07T01:38:31;13.68;;;5.88;;
46054;SDS011;31788;6.954;-71.872;2023-05-07T01:40:58;13.18;;;6.00;;
46054;SDS011;31788;6.954;-71.872;2023-05-07T01:43:25;11.48;;;5.30;;
46054;SDS011;31788;6.954;-71.872;2023-05-07T01:45:52;12.05;;;5.32;;
46054;SDS011;31788;6.954;-71.872;2023-05-07T01:48:20;14.10;;;5.25;;
46054;SDS011;31788;6.954;-71.872;2023-05-07T01:50:47;13.63;;;5.88;;
46054;SDS011;31788;6.954;-71.872;2023-05-07T01:53:14;13.07;;;5.85;;
46054;SDS011;31788;6.954;-71.872;2023-05-07T01:55:41;11.73;;;5.15;;
46054;SDS011;31788;6.954;-71.872;2023-05-07T01:58:08;11.77;;;4.95;;
46054;SDS011;31788;6.954;-71.872;2023-05-07T02:00:34;10.03;;;5.23;;
46054;SDS011;31788;6.954;-71.872;2023-05-07T02:03:01;9.85;;;4.93;;
46054;SDS011;31788;6.954;-71.872;2023-05-07T02:05:28;12.15;;;4.68;;
46054;SDS011;31788;6.954;-71.872;2023-05-07T02:07:54;10.68;;;5.47;;
46054;SDS011;31788;6.954;-71.872;2023-05-07T02:10:21;11.00;;;5.25;;
46054;SDS011;31788;6.954;-71.872;2023-05-07T02:12:48;11.90;;;4.97;;
46054;SDS011;31788;6.954;-71.872;2023-05-07T02:15:14;10.65;;;5.03;;
46054;SDS011;31788;6.954;-71.872;2023-05-07T02:18:00;13.07;;;5.30;;
46054;SDS011;31788;6.954;-71.872;2023-05-07T02:20:34;11.10;;;5.50;;
46054;SDS011;31788;6.954;-71.872;2023-05-07T02:23:01;13.70;;;5.10;;
46054;SDS011;31788;6.954;-71.872;2023-05-07T02:25:28;11.77;;;5.45;;
46054;SDS011;31788;6.954;-71.872;2023-05-07T02:27:55;12.63;;;5.40;;
46054;SDS011;31788;6.954;-71.872;2023-05-07T02:30:22;9.90;;;5.20;;
46054;SDS011;31788;6.954;-71.872;2023-05-07T02:32:49;11.75;;;5.18;;
46054;SDS011;31788;6.954;-71.872;2023-05-07T02:35:15;9.52;;;4.57;;
46054;SDS011;31788;6.954;-71.872;2023-05-07T02:37:42;13.07;;;5.35;;
46054;SDS011;31788;6.954;-71.872;2023-05-07T02:40:09;10.25;;;5.57;;
46054;SDS011;31788;6.954;-71.872;2023-05-07T02:42:36;12.95;;;4.75;;
46054;SDS011;31788;6.954;-71.872;2023-05-07T02:45:03;8.35;;;4.45;;
46054;SDS011;31788;6.954;-71.872;2023-05-07T02:47:30;10.60;;;5.03;;
46054;SDS011;31788;6.954;-71.872;2023-05-07T02:49:56;10.88;;;5.10;;
46054;SDS011;31788;6.954;-71.872;2023-05-07T02:52:23;13.70;;;5.00;;
46054;SDS011;31788;6.954;-71.872;2023-05-07T02:54:49;13.02;;;5.13;;
46054;SDS011;31788;6.954;-71.872;2023-05-07T02:57:17;14.82;;;5.10;;
46054;SDS011;31788;6.954;-71.872;2023-05-07T02:59:44;10.97;;;5.33;;
46054;SDS011;31788;6.954;-71.872;2023-05-07T03:02:13;10.98;;;4.82;;
46054;SDS011;31788;6.954;-71.872;2023-05-07T03:04:40;7.80;;;4.50;;
46054;SDS011;31788;6.954;-71.872;2023-05-07T03:07:07;11.98;;;4.70;;
46054;SDS011;31788;6.954;-71.872;2023-05-07T03:09:33;12.35;;;5.03;;
46054;SDS011;31788;6.954;-71.872;2023-05-07T03:12:00;12.57;;;5.10;;
46054;SDS011;31788;6.954;-71.872;2023-05-07T03:14:26;11.50;;;4.97;;
46054;SDS011;31788;6.954;-71.872;2023-05-07T03:16:53;10.85;;;4.90;;
46054;SDS011;31788;6.954;-71.872;2023-05-07T03:19:20;13.38;;;5.15;;
46054;SDS011;31788;6.954;-71.872;2023-05-07T03:21:46;10.53;;;5.50;;
46054;SDS011;31788;6.954;-71.872;2023-05-07T03:24:13;10.90;;;5.15;;
46054;SDS011;31788;6.954;-71.872;2023-05-07T03:26:40;10.85;;;5.18;;
46054;SDS011;31788;6.954;-71.872;2023-05-07T03:29:06;10.07;;;4.83;;
46054;SDS011;31788;6.954;-71.872;2023-05-07T03:31:33;13.80;;;5.60;;
46054;SDS011;31788;6.954;-71.872;2023-05-07T03:34:00;13.40;;;5.15;;
46054;SDS011;31788;6.954;-71.872;2023-05-07T03:36:26;12.73;;;5.00;;
46054;SDS011;31788;6.954;-71.872;2023-05-07T03:38:53;12.63;;;5.07;;
46054;SDS011;31788;6.954;-71.872;2023-05-07T03:41:20;15.57;;;5.70;;
46054;SDS011;31788;6.954;-71.872;2023-05-07T03:43:46;10.18;;;5.55;;
46054;SDS011;31788;6.954;-71.872;2023-05-07T03:46:13;9.90;;;4.67;;
46054;SDS011;31788;6.954;-71.872;2023-05-07T03:48:41;11.15;;;5.00;;
46054;SDS011;31788;6.954;-71.872;2023-05-07T03:51:07;11.48;;;5.30;;
46054;SDS011;31788;6.954;-71.872;2023-05-07T03:53:34;15.30;;;5.13;;
46054;SDS011;31788;6.954;-71.872;2023-05-07T03:56:01;10.73;;;4.85;;
46054;SDS011;31788;6.954;-71.872;2023-05-07T03:58:28;14.13;;;5.03;;
46054;SDS011;31788;6.954;-71.872;2023-05-07T04:00:54;12.75;;;5.20;;
46054;SDS011;31788;6.954;-71.872;2023-05-07T04:03:21;12.80;;;5.43;;
46054;SDS011;31788;6.954;-71.872;2023-05-07T04:05:47;13.35;;;5.18;;
46054;SDS011;31788;6.954;-71.872;2023-05-07T04:08:17;13.32;;;5.43;;
46054;SDS011;31788;6.954;-71.872;2023-05-07T04:10:44;13.93;;;5.15;;
46054;SDS011;31788;6.954;-71.872;2023-05-07T04:13:11;14.73;;;6.80;;
46054;SDS011;31788;6.954;-71.872;2023-05-07T04:15:37;18.75;;;7.30;;
46054;SDS011;31788;6.954;-71.872;2023-05-07T04:18:04;13.18;;;5.72;;
46054;SDS011;31788;6.954;-71.872;2023-05-07T04:20:31;15.50;;;6.90;;
46054;SDS011;31788;6.954;-71.872;2023-05-07T04:23:02;24.90;;;12.52;;
46054;SDS011;31788;6.954;-71.872;2023-05-07T04:25:28;15.18;;;7.68;;
46054;SDS011;31788;6.954;-71.872;2023-05-07T04:27:55;13.83;;;6.53;;
46054;SDS011;31788;6.954;-71.872;2023-05-07T04:30:22;17.67;;;8.45;;
46054;SDS011;31788;6.954;-71.872;2023-05-07T04:32:49;15.65;;;7.93;;
46054;SDS011;31788;6.954;-71.872;2023-05-07T04:35:15;18.52;;;8.20;;
46054;SDS011;31788;6.954;-71.872;2023-05-07T04:37:42;12.52;;;6.45;;
46054;SDS011;31788;6.954;-71.872;2023-05-07T04:40:09;12.68;;;6.43;;
46054;SDS011;31788;6.954;-71.872;2023-05-07T04:42:36;10.73;;;5.70;;
46054;SDS011;31788;6.954;-71.872;2023-05-07T04:45:02;10.88;;;5.28;;
46054;SDS011;31788;6.954;-71.872;2023-05-07T04:47:30;8.82;;;4.80;;
46054;SDS011;31788;6.954;-71.872;2023-05-07T04:49:57;11.80;;;5.03;;
46054;SDS011;31788;6.954;-71.872;2023-05-07T04:52:24;9.20;;;4.90;;
46054;SDS011;31788;6.954;-71.872;2023-05-07T04:54:50;9.82;;;4.80;;
46054;SDS011;31788;6.954;-71.872;2023-05-07T04:57:17;8.82;;;4.68;;
46054;SDS011;31788;6.954;-71.872;2023-05-07T04:59:44;8.10;;;4.43;;
46054;SDS011;31788;6.954;-71.872;2023-05-07T05:02:10;10.15;;;4.30;;
46054;SDS011;31788;6.954;-71.872;2023-05-07T05:04:37;8.80;;;4.15;;
46054;SDS011;31788;6.954;-71.872;2023-05-07T05:07:04;8.38;;;4.10;;
46054;SDS011;31788;6.954;-71.872;2023-05-07T05:09:31;7.53;;;3.90;;
46054;SDS011;31788;6.954;-71.872;2023-05-07T05:11:58;9.48;;;3.78;;
46054;SDS011;31788;6.954;-71.872;2023-05-07T05:14:25;7.87;;;4.07;;
46054;SDS011;31788;6.954;-71.872;2023-05-07T05:16:52;8.32;;;4.32;;
46054;SDS011;31788;6.954;-71.872;2023-05-07T05:19:18;7.93;;;3.88;;
46054;SDS011;31788;6.954;-71.872;2023-05-07T05:21:45;6.43;;;3.67;;
46054;SDS011;31788;6.954;-71.872;2023-05-07T05:24:11;7.78;;;3.90;;
46054;SDS011;31788;6.954;-71.872;2023-05-07T05:26:38;9.68;;;3.90;;
46054;SDS011;31788;6.954;-71.872;2023-05-07T05:29:05;9.37;;;3.80;;
46054;SDS011;31788;6.954;-71.872;2023-05-07T05:31:31;9.30;;;4.47;;
46054;SDS011;31788;6.954;-71.872;2023-05-07T05:33:58;8.75;;;4.13;;
46054;SDS011;31788;6.954;-71.872;2023-05-07T05:36:25;9.68;;;4.20;;
46054;SDS011;31788;6.954;-71.872;2023-05-07T05:38:52;8.02;;;4.10;;
46054;SDS011;31788;6.954;-71.872;2023-05-07T05:41:20;10.82;;;4.47;;
46054;SDS011;31788;6.954;-71.872;2023-05-07T05:43:46;8.15;;;4.13;;
46054;SDS011;31788;6.954;-71.872;2023-05-07T05:46:14;10.18;;;4.07;;
46054;SDS011;31788;6.954;-71.872;2023-05-07T05:48:41;9.53;;;4.90;;
46054;SDS011;31788;6.954;-71.872;2023-05-07T05:51:07;11.50;;;4.30;;
46054;SDS011;31788;6.954;-71.872;2023-05-07T05:53:34;10.50;;;4.57;;
46054;SDS011;31788;6.954;-71.872;2023-05-07T05:56:00;10.60;;;4.80;;
46054;SDS011;31788;6.954;-71.872;2023-05-07T05:58:27;10.52;;;4.57;;
46054;SDS011;31788;6.954;-71.872;2023-05-07T06:00:54;11.77;;;4.70;;
46054;SDS011;31788;6.954;-71.872;2023-05-07T06:03:21;11.13;;;4.90;;
46054;SDS011;31788;6.954;-71.872;2023-05-07T06:05:48;10.40;;;4.53;;
46054;SDS011;31788;6.954;-71.872;2023-05-07T06:08:14;9.43;;;4.37;;
46054;SDS011;31788;6.954;-71.872;2023-05-07T06:10:41;9.82;;;4.88;;
46054;SDS011;31788;6.954;-71.872;2023-05-07T06:13:08;9.52;;;4.10;;
46054;SDS011;31788;6.954;-71.872;2023-05-07T06:15:34;10.35;;;4.88;;
46054;SDS011;31788;6.954;-71.872;2023-05-07T06:18:01;11.15;;;4.28;;
46054;SDS011;31788;6.954;-71.872;2023-05-07T06:20:28;8.87;;;3.80;;
46054;SDS011;31788;6.954;-71.872;2023-05-07T06:22:54;7.68;;;4.00;;
46054;SDS011;31788;6.954;-71.872;2023-05-07T06:25:21;9.35;;;4.25;;
46054;SDS011;31788;6.954;-71.872;2023-05-07T06:27:47;9.13;;;4.28;;
46054;SDS011;31788;6.954;-71.872;2023-05-07T06:30:14;7.05;;;4.05;;
46054;SDS011;31788;6.954;-71.872;2023-05-07T06:32:41;8.10;;;4.17;;
46054;SDS011;31788;6.954;-71.872;2023-05-07T06:35:07;8.32;;;4.03;;
46054;SDS011;31788;6.954;-71.872;2023-05-07T06:37:34;10.05;;;3.72;;
46054;SDS011;31788;6.954;-71.872;2023-05-07T06:40:04;10.15;;;4.00;;
46054;SDS011;31788;6.954;-71.872;2023-05-07T06:42:32;7.13;;;4.03;;
46054;SDS011;31788;6.954;-71.872;2023-05-07T06:44:58;7.47;;;3.90;;
46054;SDS011;31788;6.954;-71.872;2023-05-07T06:47:25;9.43;;;3.90;;
46054;SDS011;31788;6.954;-71.872;2023-05-07T06:49:52;11.25;;;4.15;;
46054;SDS011;31788;6.954;-71.872;2023-05-07T06:52:18;8.68;;;3.92;;
46054;SDS011;31788;6.954;-71.872;2023-05-07T06:54:45;10.45;;;3.78;;
46054;SDS011;31788;6.954;-71.872;2023-05-07T06:57:11;5.75;;;3.97;;
46054;SDS011;31788;6.954;-71.872;2023-05-07T06:59:38;8.02;;;4.28;;
46054;SDS011;31788;6.954;-71.872;2023-05-07T07:02:05;8.55;;;3.85;;
46054;SDS011;31788;6.954;-71.872;2023-05-07T07:04:32;9.27;;;4.50;;
46054;SDS011;31788;6.954;-71.872;2023-05-07T07:06:58;7.72;;;3.90;;
46054;SDS011;31788;6.954;-71.872;2023-05-07T07:09:25;10.75;;;3.85;;
46054;SDS011;31788;6.954;-71.872;2023-05-07T07:11:52;7.90;;;4.13;;
46054;SDS011;31788;6.954;-71.872;2023-05-07T07:14:18;10.13;;;3.80;;
46054;SDS011;31788;6.954;-71.872;2023-05-07T07:16:45;9.05;;;3.45;;
46054;SDS011;31788;6.954;-71.872;2023-05-07T07:19:12;7.68;;;3.53;;
46054;SDS011;31788;6.954;-71.872;2023-05-07T07:21:41;12.45;;;3.97;;
46054;SDS011;31788;6.954;-71.872;2023-05-07T07:24:07;8.65;;;3.78;;
46054;SDS011;31788;6.954;-71.872;2023-05-07T07:26:34;9.43;;;3.63;;
46054;SDS011;31788;6.954;-71.872;2023-05-07T07:29:01;10.48;;;3.95;;
46054;SDS011;31788;6.954;-71.872;2023-05-07T07:31:27;10.80;;;3.90;;
46054;SDS011;31788;6.954;-71.872;2023-05-07T07:33:54;7.80;;;3.90;;
46054;SDS011;31788;6.954;-71.872;2023-05-07T07:36:21;8.80;;;3.83;;
46054;SDS011;31788;6.954;-71.872;2023-05-07T07:38:47;8.27;;;3.80;;
46054;SDS011;31788;6.954;-71.872;2023-05-07T07:41:14;8.13;;;3.67;;
46054;SDS011;31788;6.954;-71.872;2023-05-07T07:43:40;7.85;;;3.85;;
46054;SDS011;31788;6.954;-71.872;2023-05-07T07:46:07;7.25;;;3.67;;
46054;SDS011;31788;6.954;-71.872;2023-05-07T07:48:34;8.43;;;3.75;;
46054;SDS011;31788;6.954;-71.872;2023-05-07T07:51:00;8.35;;;3.83;;
46054;SDS011;31788;6.954;-71.872;2023-05-07T07:53:27;7.97;;;3.43;;
46054;SDS011;31788;6.954;-71.872;2023-05-07T07:55:54;8.55;;;3.67;;
46054;SDS011;31788;6.954;-71.872;2023-05-07T07:58:20;10.73;;;3.78;;
46054;SDS011;31788;6.954;-71.872;2023-05-07T08:00:47;9.13;;;3.80;;
46054;SDS011;31788;6.954;-71.872;2023-05-07T08:03:14;8.93;;;3.95;;
46054;SDS011;31788;6.954;-71.872;2023-05-07T08:05:42;9.50;;;3.90;;
46054;SDS011;31788;6.954;-71.872;2023-05-07T08:08:09;12.45;;;4.18;;
46054;SDS011;31788;6.954;-71.872;2023-05-07T08:10:35;6.90;;;4.25;;
46054;SDS011;31788;6.954;-71.872;2023-05-07T08:13:04;8.27;;;3.70;;
46054;SDS011;31788;6.954;-71.872;2023-05-07T08:15:32;9.95;;;4.10;;
46054;SDS011;31788;6.954;-71.872;2023-05-07T08:17:58;11.00;;;4.03;;
46054;SDS011;31788;6.954;-71.872;2023-05-07T08:20:28;7.35;;;3.63;;
46054;SDS011;31788;6.954;-71.872;2023-05-07T08:22:55;11.60;;;4.17;;
46054;SDS011;31788;6.954;-71.872;2023-05-07T08:25:21;7.97;;;3.85;;
46054;SDS011;31788;6.954;-71.872;2023-05-07T08:27:48;7.93;;;3.85;;
46054;SDS011;31788;6.954;-71.872;2023-05-07T08:30:15;11.85;;;4.25;;
46054;SDS011;31788;6.954;-71.872;2023-05-07T08:32:41;9.40;;;4.00;;
46054;SDS011;31788;6.954;-71.872;2023-05-07T08:35:08;7.85;;;3.53;;
46054;SDS011;31788;6.954;-71.872;2023-05-07T08:37:35;9.23;;;3.80;;
46054;SDS011;31788;6.954;-71.872;2023-05-07T08:40:01;9.87;;;3.70;;
46054;SDS011;31788;6.954;-71.872;2023-05-07T08:42:28;7.05;;;3.40;;
46054;SDS011;31788;6.954;-71.872;2023-05-07T08:44:57;10.48;;;3.92;;
46054;SDS011;31788;6.954;-71.872;2023-05-07T08:47:26;9.93;;;4.05;;
46054;SDS011;31788;6.954;-71.872;2023-05-07T08:50:00;11.27;;;3.72;;
46054;SDS011;31788;6.954;-71.872;2023-05-07T08:52:27;9.23;;;3.70;;
46054;SDS011;31788;6.954;-71.872;2023-05-07T08:54:54;8.50;;;3.67;;
46054;SDS011;31788;6.954;-71.872;2023-05-07T08:57:20;9.05;;;3.80;;
46054;SDS011;31788;6.954;-71.872;2023-05-07T08:59:49;8.85;;;3.50;;
46054;SDS011;31788;6.954;-71.872;2023-05-07T09:02:16;8.32;;;4.15;;
46054;SDS011;31788;6.954;-71.872;2023-05-07T09:04:43;6.65;;;3.75;;
46054;SDS011;31788;6.954;-71.872;2023-05-07T09:07:10;10.90;;;3.72;;
46054;SDS011;31788;6.954;-71.872;2023-05-07T09:09:36;7.80;;;4.30;;
46054;SDS011;31788;6.954;-71.872;2023-05-07T09:12:03;10.88;;;3.92;;
46054;SDS011;31788;6.954;-71.872;2023-05-07T09:14:30;9.10;;;4.00;;
46054;SDS011;31788;6.954;-71.872;2023-05-07T09:16:57;6.88;;;3.60;;
46054;SDS011;31788;6.954;-71.872;2023-05-07T09:19:24;8.38;;;4.13;;
46054;SDS011;31788;6.954;-71.872;2023-05-07T09:22:00;9.23;;;4.17;;
46054;SDS011;31788;6.954;-71.872;2023-05-07T09:24:28;10.97;;;4.10;;
46054;SDS011;31788;6.954;-71.872;2023-05-07T09:26:59;8.15;;;3.90;;
46054;SDS011;31788;6.954;-71.872;2023-05-07T09:29:26;10.48;;;3.75;;
46054;SDS011;31788;6.954;-71.872;2023-05-07T09:32:05;9.18;;;4.00;;
46054;SDS011;31788;6.954;-71.872;2023-05-07T09:34:32;8.98;;;3.65;;
46054;SDS011;31788;6.954;-71.872;2023-05-07T09:37:02;7.70;;;3.85;;
46054;SDS011;31788;6.954;-71.872;2023-05-07T09:39:47;9.80;;;4.03;;
46054;SDS011;31788;6.954;-71.872;2023-05-07T09:42:15;9.88;;;3.90;;
46054;SDS011;31788;6.954;-71.872;2023-05-07T09:44:43;9.07;;;4.18;;
46054;SDS011;31788;6.954;-71.872;2023-05-07T09:47:10;8.52;;;3.95;;
46054;SDS011;31788;6.954;-71.872;2023-05-07T09:49:41;7.18;;;3.75;;
46054;SDS011;31788;6.954;-71.872;2023-05-07T09:52:13;9.57;;;4.10;;
46054;SDS011;31788;6.954;-71.872;2023-05-07T09:54:40;7.43;;;3.93;;
46054;SDS011;31788;6.954;-71.872;2023-05-07T09:57:10;10.23;;;3.70;;
46054;SDS011;31788;6.954;-71.872;2023-05-07T09:59:38;10.73;;;3.85;;
46054;SDS011;31788;6.954;-71.872;2023-05-07T10:02:08;8.90;;;3.95;;
46054;SDS011;31788;6.954;-71.872;2023-05-07T10:04:35;10.48;;;4.00;;
46054;SDS011;31788;6.954;-71.872;2023-05-07T10:07:03;10.80;;;4.05;;
46054;SDS011;31788;6.954;-71.872;2023-05-07T10:09:31;8.73;;;4.05;;
46054;SDS011;31788;6.954;-71.872;2023-05-07T10:11:58;9.48;;;4.47;;
46054;SDS011;31788;6.954;-71.872;2023-05-07T10:14:25;10.38;;;4.32;;
46054;SDS011;31788;6.954;-71.872;2023-05-07T10:16:53;10.60;;;4.47;;
46054;SDS011;31788;6.954;-71.872;2023-05-07T10:19:20;10.18;;;4.70;;
46054;SDS011;31788;6.954;-71.872;2023-05-07T10:21:59;9.93;;;4.55;;
46054;SDS011;31788;6.954;-71.872;2023-05-07T10:24:33;11.20;;;4.50;;
46054;SDS011;31788;6.954;-71.872;2023-05-07T10:27:03;11.25;;;4.30;;
46054;SDS011;31788;6.954;-71.872;2023-05-07T10:35:10;8.85;;;4.45;;
46054;SDS011;31788;6.954;-71.872;2023-05-07T10:37:46;11.30;;;4.78;;
46054;SDS011;31788;6.954;-71.872;2023-05-07T10:40:13;7.80;;;4.18;;
46054;SDS011;31788;6.954;-71.872;2023-05-07T10:42:56;9.63;;;4.20;;
46054;SDS011;31788;6.954;-71.872;2023-05-07T10:45:28;11.03;;;4.53;;
46054;SDS011;31788;6.954;-71.872;2023-05-07T10:50:43;11.60;;;4.45;;
46054;SDS011;31788;6.954;-71.872;2023-05-07T10:55:46;14.15;;;4.57;;
46054;SDS011;31788;6.954;-71.872;2023-05-07T10:58:27;9.48;;;4.47;;
46054;SDS011;31788;6.954;-71.872;2023-05-07T11:03:24;15.88;;;5.65;;
46054;SDS011;31788;6.954;-71.872;2023-05-07T11:11:20;12.80;;;4.77;;
46054;SDS011;31788;6.954;-71.872;2023-05-07T11:14:14;10.77;;;5.28;;
46054;SDS011;31788;6.954;-71.872;2023-05-07T11:17:03;10.77;;;5.30;;
46054;SDS011;31788;6.954;-71.872;2023-05-07T11:19:49;11.45;;;4.90;;
46054;SDS011;31788;6.954;-71.872;2023-05-07T11:25:01;10.43;;;4.95;;
46054;SDS011;31788;6.954;-71.872;2023-05-07T11:27:29;11.13;;;4.53;;
46054;SDS011;31788;6.954;-71.872;2023-05-07T11:29:56;14.02;;;4.70;;
46054;SDS011;31788;6.954;-71.872;2023-05-07T11:32:23;12.35;;;4.63;;
46054;SDS011;31788;6.954;-71.872;2023-05-07T11:34:54;10.32;;;5.00;;
46054;SDS011;31788;6.954;-71.872;2023-05-07T11:37:21;11.43;;;5.18;;
46054;SDS011;31788;6.954;-71.872;2023-05-07T11:39:49;12.52;;;4.82;;
46054;SDS011;31788;6.954;-71.872;2023-05-07T11:42:28;9.85;;;4.80;;
46054;SDS011;31788;6.954;-71.872;2023-05-07T11:44:56;14.40;;;5.18;;
46054;SDS011;31788;6.954;-71.872;2023-05-07T11:47:22;15.68;;;5.45;;
46054;SDS011;31788;6.954;-71.872;2023-05-07T11:49:53;11.07;;;4.65;;
46054;SDS011;31788;6.954;-71.872;2023-05-07T11:52:21;14.15;;;5.40;;
46054;SDS011;31788;6.954;-71.872;2023-05-07T11:54:49;11.57;;;4.78;;
46054;SDS011;31788;6.954;-71.872;2023-05-07T11:57:24;13.53;;;5.00;;
46054;SDS011;31788;6.954;-71.872;2023-05-07T11:59:54;13.30;;;4.43;;
46054;SDS011;31788;6.954;-71.872;2023-05-07T12:02:21;13.20;;;4.47;;
46054;SDS011;31788;6.954;-71.872;2023-05-07T12:04:52;13.27;;;4.93;;
46054;SDS011;31788;6.954;-71.872;2023-05-07T12:07:20;12.23;;;4.70;;
46054;SDS011;31788;6.954;-71.872;2023-05-07T12:09:49;12.27;;;4.47;;
46054;SDS011;31788;6.954;-71.872;2023-05-07T12:12:16;12.60;;;4.35;;
46054;SDS011;31788;6.954;-71.872;2023-05-07T12:14:44;11.83;;;5.10;;
46054;SDS011;31788;6.954;-71.872;2023-05-07T12:17:11;25.38;;;5.22;;
46054;SDS011;31788;6.954;-71.872;2023-05-07T12:19:39;19.10;;;5.05;;
46054;SDS011;31788;6.954;-71.872;2023-05-07T12:22:07;31.60;;;5.78;;
46054;SDS011;31788;6.954;-71.872;2023-05-07T12:27:14;14.82;;;4.43;;
46054;SDS011;31788;6.954;-71.872;2023-05-07T12:29:48;15.37;;;4.67;;
46054;SDS011;31788;6.954;-71.872;2023-05-07T12:32:15;18.30;;;4.70;;
46054;SDS011;31788;6.954;-71.872;2023-05-07T12:34:43;12.90;;;4.47;;
46054;SDS011;31788;6.954;-71.872;2023-05-07T12:37:11;10.13;;;3.93;;
46054;SDS011;31788;6.954;-71.872;2023-05-07T12:39:38;11.90;;;4.40;;
46054;SDS011;31788;6.954;-71.872;2023-05-07T12:42:16;10.63;;;4.07;;
46054;SDS011;31788;6.954;-71.872;2023-05-07T12:44:51;12.52;;;4.75;;
46054;SDS011;31788;6.954;-71.872;2023-05-07T12:47:18;8.30;;;4.05;;
46054;SDS011;31788;6.954;-71.872;2023-05-07T12:49:46;8.40;;;4.40;;
46054;SDS011;31788;6.954;-71.872;2023-05-07T12:52:13;12.43;;;4.37;;
46054;SDS011;31788;6.954;-71.872;2023-05-07T12:54:40;10.98;;;5.15;;
46054;SDS011;31788;6.954;-71.872;2023-05-07T12:57:07;10.68;;;5.25;;
46054;SDS011;31788;6.954;-71.872;2023-05-07T12:59:36;10.07;;;5.00;;
46054;SDS011;31788;6.954;-71.872;2023-05-07T13:02:04;14.43;;;4.88;;
46054;SDS011;31788;6.954;-71.872;2023-05-07T13:04:31;9.37;;;5.07;;
46054;SDS011;31788;6.954;-71.872;2023-05-07T13:06:58;10.23;;;4.55;;
46054;SDS011;31788;6.954;-71.872;2023-05-07T13:09:25;8.50;;;4.10;;
46054;SDS011;31788;6.954;-71.872;2023-05-07T13:11:53;8.95;;;4.65;;
46054;SDS011;31788;6.954;-71.872;2023-05-07T13:14:19;7.37;;;4.50;;
46054;SDS011;31788;6.954;-71.872;2023-05-07T13:16:47;7.88;;;4.50;;
46054;SDS011;31788;6.954;-71.872;2023-05-07T13:19:14;8.35;;;4.90;;
46054;SDS011;31788;6.954;-71.872;2023-05-07T13:21:41;10.02;;;4.38;;
46054;SDS011;31788;6.954;-71.872;2023-05-07T13:24:07;11.13;;;4.87;;
46054;SDS011;31788;6.954;-71.872;2023-05-07T13:26:34;8.93;;;4.97;;
46054;SDS011;31788;6.954;-71.872;2023-05-07T13:29:01;9.27;;;4.35;;
46054;SDS011;31788;6.954;-71.872;2023-05-07T13:31:27;9.80;;;4.10;;
46054;SDS011;31788;6.954;-71.872;2023-05-07T13:33:54;10.35;;;4.70;;
46054;SDS011;31788;6.954;-71.872;2023-05-07T13:36:21;8.38;;;4.68;;
46054;SDS011;31788;6.954;-71.872;2023-05-07T13:38:48;11.15;;;5.18;;
46054;SDS011;31788;6.954;-71.872;2023-05-07T13:41:14;8.98;;;5.50;;
46054;SDS011;31788;6.954;-71.872;2023-05-07T13:43:41;14.83;;;6.33;;
46054;SDS011;31788;6.954;-71.872;2023-05-07T13:46:08;15.15;;;6.30;;
46054;SDS011;31788;6.954;-71.872;2023-05-07T13:48:34;11.88;;;6.25;;
46054;SDS011;31788;6.954;-71.872;2023-05-07T13:51:01;11.63;;;5.68;;
46054;SDS011;31788;6.954;-71.872;2023-05-07T13:53:29;13.07;;;5.80;;
46054;SDS011;31788;6.954;-71.872;2023-05-07T13:55:55;9.68;;;5.38;;
46054;SDS011;31788;6.954;-71.872;2023-05-07T13:58:22;19.30;;;9.68;;
46054;SDS011;31788;6.954;-71.872;2023-05-07T14:00:49;40.72;;;24.48;;
46054;SDS011;31788;6.954;-71.872;2023-05-07T14:03:15;33.27;;;22.37;;
46054;SDS011;31788;6.954;-71.872;2023-05-07T14:05:44;35.53;;;22.73;;
46054;SDS011;31788;6.954;-71.872;2023-05-07T14:08:11;32.22;;;18.92;;
46054;SDS011;31788;6.954;-71.872;2023-05-07T14:10:39;23.45;;;14.93;;
46054;SDS011;31788;6.954;-71.872;2023-05-07T14:13:06;24.27;;;15.67;;
46054;SDS011;31788;6.954;-71.872;2023-05-07T14:15:32;24.42;;;13.05;;
46054;SDS011;31788;6.954;-71.872;2023-05-07T14:17:59;22.15;;;13.32;;
46054;SDS011;31788;6.954;-71.872;2023-05-07T14:20:26;36.90;;;25.20;;
46054;SDS011;31788;6.954;-71.872;2023-05-07T14:22:54;55.20;;;38.72;;
46054;SDS011;31788;6.954;-71.872;2023-05-07T14:25:20;47.47;;;30.17;;
46054;SDS011;31788;6.954;-71.872;2023-05-07T14:27:47;43.10;;;28.77;;
46054;SDS011;31788;6.954;-71.872;2023-05-07T14:30:14;36.50;;;24.53;;
46054;SDS011;31788;6.954;-71.872;2023-05-07T14:32:42;35.80;;;22.45;;
46054;SDS011;31788;6.954;-71.872;2023-05-07T14:35:08;27.70;;;17.70;;
46054;SDS011;31788;6.954;-71.872;2023-05-07T14:37:35;26.93;;;15.73;;
46054;SDS011;31788;6.954;-71.872;2023-05-07T14:40:01;22.70;;;13.90;;
46054;SDS011;31788;6.954;-71.872;2023-05-07T14:42:28;20.23;;;13.10;;
46054;SDS011;31788;6.954;-71.872;2023-05-07T14:44:56;19.00;;;11.83;;
46054;SDS011;31788;6.954;-71.872;2023-05-07T14:47:22;19.42;;;10.30;;
46054;SDS011;31788;6.954;-71.872;2023-05-07T14:49:49;16.77;;;9.60;;
46054;SDS011;31788;6.954;-71.872;2023-05-07T14:52:16;17.20;;;9.40;;